sensor_id;sensor_type;location;lat;lon;timestamp;P1;durP1;ratioP1;P2;durP2;ratioP2
39502;SDS011;26970;49.900;10.774;2023-05-01T00:02:19;15.48;;;6.30;;
39502;SDS011;26970;49.900;10.774;2023-05-01T00:04:45;10.70;;;6.35;;
39502;SDS011;26970;49.900;10.774;2023-05-01T00:07:11;12.35;;;6.68;;
39502;SDS011;26970;49.900;10.774;2023-05-01T00:09:36;11.38;;;6.88;;
39502;SDS011;26970;49.900;10.774;2023-05-01T00:12:02;10.55;;;6.00;;
39502;SDS011;26970;49.900;10.774;2023-05-01T00:14:28;15.82;;;7.40;;
39502;SDS011;26970;49.900;10.774;2023-05-01T00:16:54;12.27;;;6.63;;
39502;SDS011;26970;49.900;10.774;2023-05-01T00:19:20;16.00;;;7.22;;
39502;SDS011;26970;49.900;10.774;2023-05-01T00:21:46;12.05;;;6.43;;
39502;SDS011;26970;49.900;10.774;2023-05-01T00:24:12;10.68;;;6.60;;
39502;SDS011;26970;49.900;10.774;2023-05-01T00:26:39;14.63;;;7.50;;
39502;SDS011;26970;49.900;10.774;2023-05-01T00:29:04;12.43;;;6.13;;
39502;SDS011;26970;49.900;10.774;2023-05-01T00:31:30;10.88;;;6.38;;
39502;SDS011;26970;49.900;10.774;2023-05-01T00:33:55;12.35;;;6.85;;
39502;SDS011;26970;49.900;10.774;2023-05-01T00:36:21;12.38;;;6.20;;
39502;SDS011;26970;49.900;10.774;2023-05-01T00:38:47;12.30;;;6.70;;
39502;SDS011;26970;49.900;10.774;2023-05-01T00:41:12;13.73;;;6.97;;
39502;SDS011;26970;49.900;10.774;2023-05-01T00:43:38;14.50;;;7.10;;
39502;SDS011;26970;49.900;10.774;2023-05-01T00:46:04;12.00;;;7.20;;
39502;SDS011;26970;49.900;10.774;2023-05-01T00:48:30;11.25;;;6.60;;
39502;SDS011;26970;49.900;10.774;2023-05-01T00:50:55;12.45;;;7.00;;
39502;SDS011;26970;49.900;10.774;2023-05-01T00:53:23;15.45;;;7.65;;
39502;SDS011;26970;49.900;10.774;2023-05-01T00:55:50;16.52;;;6.93;;
39502;SDS011;26970;49.900;10.774;2023-05-01T00:58:17;16.55;;;7.40;;
39502;SDS011;26970;49.900;10.774;2023-05-01T01:00:44;15.70;;;7.43;;
39502;SDS011;26970;49.900;10.774;2023-05-01T01:03:10;14.27;;;7.22;;
39502;SDS011;26970;49.900;10.774;2023-05-01T01:05:38;15.40;;;7.25;;
39502;SDS011;26970;49.900;10.774;2023-05-01T01:08:13;14.35;;;6.80;;
39502;SDS011;26970;49.900;10.774;2023-05-01T01:10:49;13.65;;;7.05;;
39502;SDS011;26970;49.900;10.774;2023-05-01T01:16:32;13.90;;;8.05;;
39502;SDS011;26970;49.900;10.774;2023-05-01T01:27:05;16.23;;;8.35;;
39502;SDS011;26970;49.900;10.774;2023-05-01T01:35:35;12.02;;;6.20;;
39502;SDS011;26970;49.900;10.774;2023-05-01T01:38:08;13.18;;;6.65;;
39502;SDS011;26970;49.900;10.774;2023-05-01T01:40:44;13.00;;;6.75;;
39502;SDS011;26970;49.900;10.774;2023-05-01T01:43:20;10.98;;;6.55;;
39502;SDS011;26970;49.900;10.774;2023-05-01T01:45:49;11.40;;;6.35;;
39502;SDS011;26970;49.900;10.774;2023-05-01T01:48:25;13.90;;;6.93;;
39502;SDS011;26970;49.900;10.774;2023-05-01T01:50:58;11.18;;;6.40;;
39502;SDS011;26970;49.900;10.774;2023-05-01T01:53:27;10.95;;;6.15;;
39502;SDS011;26970;49.900;10.774;2023-05-01T01:55:55;11.65;;;6.53;;
39502;SDS011;26970;49.900;10.774;2023-05-01T01:58:23;10.95;;;6.18;;
39502;SDS011;26970;49.900;10.774;2023-05-01T02:00:51;10.63;;;6.00;;
39502;SDS011;26970;49.900;10.774;2023-05-01T02:03:19;10.07;;;5.72;;
39502;SDS011;26970;49.900;10.774;2023-05-01T02:05:47;12.18;;;5.78;;
39502;SDS011;26970;49.900;10.774;2023-05-01T02:08:16;11.30;;;5.38;;
39502;SDS011;26970;49.900;10.774;2023-05-01T02:10:42;9.07;;;5.68;;
39502;SDS011;26970;49.900;10.774;2023-05-01T02:13:09;11.07;;;6.03;;
39502;SDS011;26970;49.900;10.774;2023-05-01T02:15:36;10.15;;;5.22;;
39502;SDS011;26970;49.900;10.774;2023-05-01T02:18:04;13.30;;;5.55;;
39502;SDS011;26970;49.900;10.774;2023-05-01T02:20:30;10.25;;;5.40;;
39502;SDS011;26970;49.900;10.774;2023-05-01T02:22:57;10.20;;;5.43;;
39502;SDS011;26970;49.900;10.774;2023-05-01T02:25:23;8.13;;;5.25;;
39502;SDS011;26970;49.900;10.774;2023-05-01T02:27:51;15.30;;;5.47;;
39502;SDS011;26970;49.900;10.774;2023-05-01T02:30:20;8.25;;;4.75;;
39502;SDS011;26970;49.900;10.774;2023-05-01T02:32:46;9.10;;;5.20;;
39502;SDS011;26970;49.900;10.774;2023-05-01T02:35:11;7.82;;;4.65;;
39502;SDS011;26970;49.900;10.774;2023-05-01T02:37:37;9.23;;;4.65;;
39502;SDS011;26970;49.900;10.774;2023-05-01T02:40:03;9.50;;;4.80;;
39502;SDS011;26970;49.900;10.774;2023-05-01T02:42:29;11.35;;;4.80;;
39502;SDS011;26970;49.900;10.774;2023-05-01T02:44:58;10.82;;;4.82;;
39502;SDS011;26970;49.900;10.774;2023-05-01T02:47:27;8.20;;;5.25;;
39502;SDS011;26970;49.900;10.774;2023-05-01T02:49:54;9.43;;;5.05;;
39502;SDS011;26970;49.900;10.774;2023-05-01T02:52:21;9.95;;;4.85;;
39502;SDS011;26970;49.900;10.774;2023-05-01T02:54:47;7.28;;;4.85;;
39502;SDS011;26970;49.900;10.774;2023-05-01T02:57:16;9.77;;;5.35;;
39502;SDS011;26970;49.900;10.774;2023-05-01T02:59:42;17.98;;;5.32;;
39502;SDS011;26970;49.900;10.774;2023-05-01T03:02:08;11.65;;;5.28;;
39502;SDS011;26970;49.900;10.774;2023-05-01T03:04:33;8.63;;;4.75;;
39502;SDS011;26970;49.900;10.774;2023-05-01T03:06:59;10.68;;;4.82;;
39502;SDS011;26970;49.900;10.774;2023-05-01T03:09:25;9.68;;;4.80;;
39502;SDS011;26970;49.900;10.774;2023-05-01T03:11:50;11.15;;;5.00;;
39502;SDS011;26970;49.900;10.774;2023-05-01T03:14:16;7.45;;;4.75;;
39502;SDS011;26970;49.900;10.774;2023-05-01T03:16:42;8.65;;;4.95;;
39502;SDS011;26970;49.900;10.774;2023-05-01T03:19:08;8.18;;;5.00;;
39502;SDS011;26970;49.900;10.774;2023-05-01T03:21:34;10.05;;;5.32;;
39502;SDS011;26970;49.900;10.774;2023-05-01T03:24:00;12.30;;;5.32;;
39502;SDS011;26970;49.900;10.774;2023-05-01T03:26:27;9.23;;;5.97;;
39502;SDS011;26970;49.900;10.774;2023-05-01T03:28:52;10.10;;;5.30;;
39502;SDS011;26970;49.900;10.774;2023-05-01T03:31:18;9.18;;;5.25;;
39502;SDS011;26970;49.900;10.774;2023-05-01T03:33:43;13.43;;;5.82;;
39502;SDS011;26970;49.900;10.774;2023-05-01T03:36:09;8.45;;;5.20;;
39502;SDS011;26970;49.900;10.774;2023-05-01T03:38:37;9.15;;;4.97;;
39502;SDS011;26970;49.900;10.774;2023-05-01T03:41:03;11.43;;;5.00;;
39502;SDS011;26970;49.900;10.774;2023-05-01T03:43:30;11.52;;;5.30;;
39502;SDS011;26970;49.900;10.774;2023-05-01T03:45:56;8.98;;;5.35;;
39502;SDS011;26970;49.900;10.774;2023-05-01T03:48:22;8.80;;;5.80;;
39502;SDS011;26970;49.900;10.774;2023-05-01T03:50:48;7.90;;;4.85;;
39502;SDS011;26970;49.900;10.774;2023-05-01T03:53:14;13.02;;;6.20;;
39502;SDS011;26970;49.900;10.774;2023-05-01T03:55:40;9.32;;;5.55;;
39502;SDS011;26970;49.900;10.774;2023-05-01T03:58:06;9.10;;;5.28;;
39502;SDS011;26970;49.900;10.774;2023-05-01T04:00:32;11.43;;;5.50;;
39502;SDS011;26970;49.900;10.774;2023-05-01T04:02:58;11.50;;;5.40;;
39502;SDS011;26970;49.900;10.774;2023-05-01T04:05:23;10.95;;;5.47;;
39502;SDS011;26970;49.900;10.774;2023-05-01T04:07:49;8.13;;;5.18;;
39502;SDS011;26970;49.900;10.774;2023-05-01T04:10:15;10.75;;;4.78;;
39502;SDS011;26970;49.900;10.774;2023-05-01T04:12:41;7.85;;;5.13;;
39502;SDS011;26970;49.900;10.774;2023-05-01T04:15:07;12.45;;;5.18;;
39502;SDS011;26970;49.900;10.774;2023-05-01T04:17:36;10.10;;;5.30;;
39502;SDS011;26970;49.900;10.774;2023-05-01T04:20:02;9.68;;;5.00;;
39502;SDS011;26970;49.900;10.774;2023-05-01T04:22:30;11.15;;;6.10;;
39502;SDS011;26970;49.900;10.774;2023-05-01T04:24:56;11.02;;;5.13;;
39502;SDS011;26970;49.900;10.774;2023-05-01T04:27:21;10.13;;;5.45;;
39502;SDS011;26970;49.900;10.774;2023-05-01T04:29:47;8.93;;;5.53;;
39502;SDS011;26970;49.900;10.774;2023-05-01T04:32:13;12.02;;;5.47;;
39502;SDS011;26970;49.900;10.774;2023-05-01T04:34:38;15.95;;;6.20;;
39502;SDS011;26970;49.900;10.774;2023-05-01T04:37:04;8.77;;;5.70;;
39502;SDS011;26970;49.900;10.774;2023-05-01T04:39:31;12.65;;;5.93;;
39502;SDS011;26970;49.900;10.774;2023-05-01T04:41:57;11.25;;;6.57;;
39502;SDS011;26970;49.900;10.774;2023-05-01T04:44:23;12.63;;;6.88;;
39502;SDS011;26970;49.900;10.774;2023-05-01T04:46:48;14.43;;;6.95;;
39502;SDS011;26970;49.900;10.774;2023-05-01T04:49:14;14.98;;;8.00;;
39502;SDS011;26970;49.900;10.774;2023-05-01T04:51:40;16.10;;;9.35;;
39502;SDS011;26970;49.900;10.774;2023-05-01T04:54:05;13.43;;;6.65;;
39502;SDS011;26970;49.900;10.774;2023-05-01T04:56:31;11.85;;;6.53;;
39502;SDS011;26970;49.900;10.774;2023-05-01T04:58:56;12.07;;;6.10;;
39502;SDS011;26970;49.900;10.774;2023-05-01T05:01:22;11.13;;;5.90;;
39502;SDS011;26970;49.900;10.774;2023-05-01T05:03:48;10.88;;;5.88;;
39502;SDS011;26970;49.900;10.774;2023-05-01T05:06:13;13.32;;;6.20;;
39502;SDS011;26970;49.900;10.774;2023-05-01T05:08:39;11.80;;;4.97;;
39502;SDS011;26970;49.900;10.774;2023-05-01T05:11:05;9.57;;;5.60;;
39502;SDS011;26970;49.900;10.774;2023-05-01T05:13:31;10.38;;;5.97;;
39502;SDS011;26970;49.900;10.774;2023-05-01T05:15:56;10.35;;;5.55;;
39502;SDS011;26970;49.900;10.774;2023-05-01T05:18:22;11.20;;;5.50;;
39502;SDS011;26970;49.900;10.774;2023-05-01T05:20:47;9.85;;;5.72;;
39502;SDS011;26970;49.900;10.774;2023-05-01T05:23:13;10.27;;;5.25;;
39502;SDS011;26970;49.900;10.774;2023-05-01T05:25:39;11.13;;;6.32;;
39502;SDS011;26970;49.900;10.774;2023-05-01T05:28:04;10.85;;;5.53;;
39502;SDS011;26970;49.900;10.774;2023-05-01T05:30:30;9.43;;;6.10;;
39502;SDS011;26970;49.900;10.774;2023-05-01T05:32:55;15.77;;;5.78;;
39502;SDS011;26970;49.900;10.774;2023-05-01T05:35:21;11.73;;;6.13;;
39502;SDS011;26970;49.900;10.774;2023-05-01T05:37:47;12.15;;;5.80;;
39502;SDS011;26970;49.900;10.774;2023-05-01T05:40:13;13.00;;;6.13;;
39502;SDS011;26970;49.900;10.774;2023-05-01T05:42:38;11.50;;;6.55;;
39502;SDS011;26970;49.900;10.774;2023-05-01T05:45:06;11.10;;;5.63;;
39502;SDS011;26970;49.900;10.774;2023-05-01T05:47:32;11.48;;;6.05;;
39502;SDS011;26970;49.900;10.774;2023-05-01T05:49:58;10.40;;;6.00;;
39502;SDS011;26970;49.900;10.774;2023-05-01T05:52:23;11.50;;;5.63;;
39502;SDS011;26970;49.900;10.774;2023-05-01T05:54:49;9.50;;;5.75;;
39502;SDS011;26970;49.900;10.774;2023-05-01T05:57:15;9.18;;;5.80;;
39502;SDS011;26970;49.900;10.774;2023-05-01T05:59:41;11.15;;;6.03;;
39502;SDS011;26970;49.900;10.774;2023-05-01T06:02:08;11.60;;;6.47;;
39502;SDS011;26970;49.900;10.774;2023-05-01T06:04:33;9.57;;;5.70;;
39502;SDS011;26970;49.900;10.774;2023-05-01T06:06:59;10.70;;;5.68;;
39502;SDS011;26970;49.900;10.774;2023-05-01T06:09:24;11.48;;;6.70;;
39502;SDS011;26970;49.900;10.774;2023-05-01T06:11:50;11.90;;;5.97;;
39502;SDS011;26970;49.900;10.774;2023-05-01T06:14:16;11.55;;;6.35;;
39502;SDS011;26970;49.900;10.774;2023-05-01T06:16:41;9.20;;;5.85;;
39502;SDS011;26970;49.900;10.774;2023-05-01T06:19:07;11.63;;;6.18;;
39502;SDS011;26970;49.900;10.774;2023-05-01T06:21:34;9.05;;;5.38;;
39502;SDS011;26970;49.900;10.774;2023-05-01T06:24:00;11.27;;;5.28;;
39502;SDS011;26970;49.900;10.774;2023-05-01T06:26:26;12.35;;;5.95;;
39502;SDS011;26970;49.900;10.774;2023-05-01T06:28:52;9.00;;;4.80;;
39502;SDS011;26970;49.900;10.774;2023-05-01T06:31:18;10.82;;;5.40;;
39502;SDS011;26970;49.900;10.774;2023-05-01T06:33:44;10.68;;;5.18;;
39502;SDS011;26970;49.900;10.774;2023-05-01T06:36:10;8.55;;;5.10;;
39502;SDS011;26970;49.900;10.774;2023-05-01T06:38:35;8.68;;;4.93;;
39502;SDS011;26970;49.900;10.774;2023-05-01T06:41:01;9.60;;;5.15;;
39502;SDS011;26970;49.900;10.774;2023-05-01T06:43:28;10.00;;;5.00;;
39502;SDS011;26970;49.900;10.774;2023-05-01T06:45:55;10.38;;;5.22;;
39502;SDS011;26970;49.900;10.774;2023-05-01T06:48:21;9.88;;;5.07;;
39502;SDS011;26970;49.900;10.774;2023-05-01T06:50:47;10.82;;;4.88;;
39502;SDS011;26970;49.900;10.774;2023-05-01T06:53:12;10.88;;;5.30;;
39502;SDS011;26970;49.900;10.774;2023-05-01T06:55:38;10.43;;;5.38;;
39502;SDS011;26970;49.900;10.774;2023-05-01T06:58:03;9.43;;;4.88;;
39502;SDS011;26970;49.900;10.774;2023-05-01T07:00:30;9.77;;;5.40;;
39502;SDS011;26970;49.900;10.774;2023-05-01T07:02:57;12.02;;;6.03;;
39502;SDS011;26970;49.900;10.774;2023-05-01T07:05:23;11.00;;;5.60;;
39502;SDS011;26970;49.900;10.774;2023-05-01T07:07:48;10.05;;;5.43;;
39502;SDS011;26970;49.900;10.774;2023-05-01T07:10:14;9.75;;;6.03;;
39502;SDS011;26970;49.900;10.774;2023-05-01T07:12:40;11.30;;;5.53;;
39502;SDS011;26970;49.900;10.774;2023-05-01T07:15:05;10.27;;;5.78;;
39502;SDS011;26970;49.900;10.774;2023-05-01T07:17:32;12.35;;;5.93;;
39502;SDS011;26970;49.900;10.774;2023-05-01T07:19:58;11.40;;;6.00;;
39502;SDS011;26970;49.900;10.774;2023-05-01T07:22:25;9.93;;;5.00;;
39502;SDS011;26970;49.900;10.774;2023-05-01T07:24:50;10.10;;;5.63;;
39502;SDS011;26970;49.900;10.774;2023-05-01T07:27:16;11.95;;;5.35;;
39502;SDS011;26970;49.900;10.774;2023-05-01T07:29:42;9.32;;;5.03;;
39502;SDS011;26970;49.900;10.774;2023-05-01T07:32:08;11.05;;;5.70;;
39502;SDS011;26970;49.900;10.774;2023-05-01T07:34:34;12.63;;;6.10;;
39502;SDS011;26970;49.900;10.774;2023-05-01T07:36:59;9.90;;;5.88;;
39502;SDS011;26970;49.900;10.774;2023-05-01T07:39:25;13.55;;;5.85;;
39502;SDS011;26970;49.900;10.774;2023-05-01T07:41:50;8.93;;;5.40;;
39502;SDS011;26970;49.900;10.774;2023-05-01T07:44:16;12.43;;;6.35;;
39502;SDS011;26970;49.900;10.774;2023-05-01T07:46:42;10.48;;;5.90;;
39502;SDS011;26970;49.900;10.774;2023-05-01T07:49:07;11.52;;;5.82;;
39502;SDS011;26970;49.900;10.774;2023-05-01T07:51:33;16.48;;;6.47;;
39502;SDS011;26970;49.900;10.774;2023-05-01T07:53:58;11.88;;;6.18;;
39502;SDS011;26970;49.900;10.774;2023-05-01T07:56:28;12.27;;;6.68;;
39502;SDS011;26970;49.900;10.774;2023-05-01T07:58:55;9.68;;;6.70;;
39502;SDS011;26970;49.900;10.774;2023-05-01T08:01:21;11.43;;;6.25;;
39502;SDS011;26970;49.900;10.774;2023-05-01T08:03:47;9.38;;;6.13;;
39502;SDS011;26970;49.900;10.774;2023-05-01T08:06:12;12.27;;;6.25;;
39502;SDS011;26970;49.900;10.774;2023-05-01T08:08:38;14.48;;;6.10;;
39502;SDS011;26970;49.900;10.774;2023-05-01T08:11:04;10.05;;;6.05;;
39502;SDS011;26970;49.900;10.774;2023-05-01T08:13:29;10.40;;;6.30;;
39502;SDS011;26970;49.900;10.774;2023-05-01T08:15:59;9.50;;;5.60;;
39502;SDS011;26970;49.900;10.774;2023-05-01T08:18:28;14.27;;;6.15;;
39502;SDS011;26970;49.900;10.774;2023-05-01T08:20:54;9.85;;;5.38;;
39502;SDS011;26970;49.900;10.774;2023-05-01T08:23:19;10.77;;;5.90;;
39502;SDS011;26970;49.900;10.774;2023-05-01T08:25:45;11.10;;;5.90;;
39502;SDS011;26970;49.900;10.774;2023-05-01T08:28:11;10.18;;;6.43;;
39502;SDS011;26970;49.900;10.774;2023-05-01T08:30:38;10.68;;;5.50;;
39502;SDS011;26970;49.900;10.774;2023-05-01T08:33:04;10.23;;;6.20;;
39502;SDS011;26970;49.900;10.774;2023-05-01T08:35:30;9.70;;;5.80;;
39502;SDS011;26970;49.900;10.774;2023-05-01T08:37:55;9.98;;;5.55;;
39502;SDS011;26970;49.900;10.774;2023-05-01T08:40:22;9.82;;;6.13;;
39502;SDS011;26970;49.900;10.774;2023-05-01T08:42:49;10.52;;;5.80;;
39502;SDS011;26970;49.900;10.774;2023-05-01T08:45:15;8.25;;;5.18;;
39502;SDS011;26970;49.900;10.774;2023-05-01T08:47:45;9.30;;;5.05;;
39502;SDS011;26970;49.900;10.774;2023-05-01T08:50:13;14.02;;;6.47;;
39502;SDS011;26970;49.900;10.774;2023-05-01T08:52:41;9.85;;;6.20;;
39502;SDS011;26970;49.900;10.774;2023-05-01T08:55:11;10.02;;;6.10;;
39502;SDS011;26970;49.900;10.774;2023-05-01T08:57:42;11.83;;;6.03;;
39502;SDS011;26970;49.900;10.774;2023-05-01T09:00:21;11.48;;;6.22;;
39502;SDS011;26970;49.900;10.774;2023-05-01T09:02:48;8.95;;;5.50;;
39502;SDS011;26970;49.900;10.774;2023-05-01T09:05:15;12.77;;;5.57;;
39502;SDS011;26970;49.900;10.774;2023-05-01T09:07:42;10.60;;;5.78;;
39502;SDS011;26970;49.900;10.774;2023-05-01T09:10:10;9.55;;;5.60;;
39502;SDS011;26970;49.900;10.774;2023-05-01T09:12:36;9.85;;;5.50;;
39502;SDS011;26970;49.900;10.774;2023-05-01T09:15:03;12.30;;;5.47;;
39502;SDS011;26970;49.900;10.774;2023-05-01T09:17:31;11.48;;;6.10;;
39502;SDS011;26970;49.900;10.774;2023-05-01T09:19:57;8.95;;;5.60;;
39502;SDS011;26970;49.900;10.774;2023-05-01T09:22:25;10.15;;;5.72;;
39502;SDS011;26970;49.900;10.774;2023-05-01T09:24:51;8.93;;;6.15;;
39502;SDS011;26970;49.900;10.774;2023-05-01T09:27:17;10.40;;;5.90;;
39502;SDS011;26970;49.900;10.774;2023-05-01T09:29:46;11.40;;;5.88;;
39502;SDS011;26970;49.900;10.774;2023-05-01T09:32:19;10.75;;;5.63;;
39502;SDS011;26970;49.900;10.774;2023-05-01T09:34:48;11.15;;;5.40;;
39502;SDS011;26970;49.900;10.774;2023-05-01T09:37:28;12.15;;;7.15;;
39502;SDS011;26970;49.900;10.774;2023-05-01T09:40:02;8.35;;;5.15;;
39502;SDS011;26970;49.900;10.774;2023-05-01T09:42:36;7.88;;;5.20;;
39502;SDS011;26970;49.900;10.774;2023-05-01T09:45:12;8.27;;;5.22;;
39502;SDS011;26970;49.900;10.774;2023-05-01T09:47:39;6.68;;;4.60;;
39502;SDS011;26970;49.900;10.774;2023-05-01T09:50:06;8.55;;;4.78;;
39502;SDS011;26970;49.900;10.774;2023-05-01T09:52:32;8.55;;;5.30;;
39502;SDS011;26970;49.900;10.774;2023-05-01T09:55:14;8.05;;;5.18;;
39502;SDS011;26970;49.900;10.774;2023-05-01T09:57:41;10.30;;;5.15;;
39502;SDS011;26970;49.900;10.774;2023-05-01T10:00:09;8.25;;;4.80;;
39502;SDS011;26970;49.900;10.774;2023-05-01T10:02:36;11.00;;;5.10;;
39502;SDS011;26970;49.900;10.774;2023-05-01T10:05:03;9.55;;;4.47;;
39502;SDS011;26970;49.900;10.774;2023-05-01T10:07:29;10.32;;;4.80;;
39502;SDS011;26970;49.900;10.774;2023-05-01T10:09:55;8.07;;;4.85;;
39502;SDS011;26970;49.900;10.774;2023-05-01T10:12:21;12.00;;;5.43;;
39502;SDS011;26970;49.900;10.774;2023-05-01T10:14:52;8.13;;;4.90;;
39502;SDS011;26970;49.900;10.774;2023-05-01T10:17:19;7.90;;;4.53;;
39502;SDS011;26970;49.900;10.774;2023-05-01T10:19:45;10.50;;;5.13;;
39502;SDS011;26970;49.900;10.774;2023-05-01T10:22:11;9.70;;;4.45;;
39502;SDS011;26970;49.900;10.774;2023-05-01T10:24:37;8.27;;;4.95;;
39502;SDS011;26970;49.900;10.774;2023-05-01T10:27:05;6.30;;;4.60;;
39502;SDS011;26970;49.900;10.774;2023-05-01T10:29:33;10.25;;;6.28;;
39502;SDS011;26970;49.900;10.774;2023-05-01T10:32:01;7.55;;;4.90;;
39502;SDS011;26970;49.900;10.774;2023-05-01T10:34:29;6.47;;;4.53;;
39502;SDS011;26970;49.900;10.774;2023-05-01T10:37:00;7.20;;;4.72;;
39502;SDS011;26970;49.900;10.774;2023-05-01T10:44:23;7.25;;;4.45;;
39502;SDS011;26970;49.900;10.774;2023-05-01T10:46:50;6.97;;;5.03;;
39502;SDS011;26970;49.900;10.774;2023-05-01T10:49:16;7.70;;;4.50;;
39502;SDS011;26970;49.900;10.774;2023-05-01T10:51:56;7.30;;;4.43;;
39502;SDS011;26970;49.900;10.774;2023-05-01T10:54:26;6.72;;;4.38;;
39502;SDS011;26970;49.900;10.774;2023-05-01T10:56:53;7.57;;;4.63;;
39502;SDS011;26970;49.900;10.774;2023-05-01T10:59:20;8.13;;;4.68;;
39502;SDS011;26970;49.900;10.774;2023-05-01T11:01:46;8.43;;;4.97;;
39502;SDS011;26970;49.900;10.774;2023-05-01T11:09:40;7.65;;;5.15;;
39502;SDS011;26970;49.900;10.774;2023-05-01T11:12:10;8.30;;;4.93;;
39502;SDS011;26970;49.900;10.774;2023-05-01T11:22:34;9.32;;;5.30;;
39502;SDS011;26970;49.900;10.774;2023-05-01T11:25:01;8.90;;;5.55;;
39502;SDS011;26970;49.900;10.774;2023-05-01T11:27:28;11.07;;;5.70;;
39502;SDS011;26970;49.900;10.774;2023-05-01T11:29:55;13.60;;;6.18;;
39502;SDS011;26970;49.900;10.774;2023-05-01T11:32:26;9.10;;;5.90;;
39502;SDS011;26970;49.900;10.774;2023-05-01T11:34:54;8.63;;;5.55;;
39502;SDS011;26970;49.900;10.774;2023-05-01T11:37:37;12.45;;;5.82;;
39502;SDS011;26970;49.900;10.774;2023-05-01T11:40:28;10.77;;;6.63;;
39502;SDS011;26970;49.900;10.774;2023-05-01T11:45:24;8.65;;;5.47;;
39502;SDS011;26970;49.900;10.774;2023-05-01T11:47:50;8.85;;;5.43;;
39502;SDS011;26970;49.900;10.774;2023-05-01T11:50:17;11.35;;;5.70;;
39502;SDS011;26970;49.900;10.774;2023-05-01T11:52:45;9.95;;;6.28;;
39502;SDS011;26970;49.900;10.774;2023-05-01T11:55:12;8.02;;;5.95;;
39502;SDS011;26970;49.900;10.774;2023-05-01T12:00:11;10.55;;;6.72;;
39502;SDS011;26970;49.900;10.774;2023-05-01T12:02:56;8.98;;;6.70;;
39502;SDS011;26970;49.900;10.774;2023-05-01T12:05:26;12.57;;;7.15;;
39502;SDS011;26970;49.900;10.774;2023-05-01T12:10:46;11.10;;;5.80;;
39502;SDS011;26970;49.900;10.774;2023-05-01T12:13:21;11.35;;;6.65;;
39502;SDS011;26970;49.900;10.774;2023-05-01T12:15:49;9.13;;;6.10;;
39502;SDS011;26970;49.900;10.774;2023-05-01T12:18:17;10.50;;;6.07;;
39502;SDS011;26970;49.900;10.774;2023-05-01T12:20:43;14.20;;;6.45;;
39502;SDS011;26970;49.900;10.774;2023-05-01T12:23:15;9.80;;;5.90;;
39502;SDS011;26970;49.900;10.774;2023-05-01T12:25:43;12.63;;;7.00;;
39502;SDS011;26970;49.900;10.774;2023-05-01T12:28:12;11.43;;;6.68;;
39502;SDS011;26970;49.900;10.774;2023-05-01T12:30:43;10.07;;;7.25;;
39502;SDS011;26970;49.900;10.774;2023-05-01T12:33:11;9.32;;;5.85;;
39502;SDS011;26970;49.900;10.774;2023-05-01T12:35:39;8.43;;;5.68;;
39502;SDS011;26970;49.900;10.774;2023-05-01T12:38:09;9.18;;;6.35;;
39502;SDS011;26970;49.900;10.774;2023-05-01T12:40:37;9.38;;;6.32;;
39502;SDS011;26970;49.900;10.774;2023-05-01T12:43:28;8.73;;;6.50;;
39502;SDS011;26970;49.900;10.774;2023-05-01T12:45:58;11.25;;;6.75;;
39502;SDS011;26970;49.900;10.774;2023-05-01T12:48:24;10.38;;;7.70;;
39502;SDS011;26970;49.900;10.774;2023-05-01T12:50:51;10.48;;;7.20;;
39502;SDS011;26970;49.900;10.774;2023-05-01T12:53:18;11.73;;;8.40;;
39502;SDS011;26970;49.900;10.774;2023-05-01T12:55:46;14.63;;;10.73;;
39502;SDS011;26970;49.900;10.774;2023-05-01T12:58:13;16.17;;;8.18;;
39502;SDS011;26970;49.900;10.774;2023-05-01T13:00:50;12.00;;;8.32;;
39502;SDS011;26970;49.900;10.774;2023-05-01T13:03:26;14.25;;;8.00;;
39502;SDS011;26970;49.900;10.774;2023-05-01T13:05:56;11.13;;;7.47;;
39502;SDS011;26970;49.900;10.774;2023-05-01T13:08:25;11.55;;;9.10;;
39502;SDS011;26970;49.900;10.774;2023-05-01T13:10:59;11.15;;;8.60;;
39502;SDS011;26970;49.900;10.774;2023-05-01T13:13:27;13.02;;;9.68;;
39502;SDS011;26970;49.900;10.774;2023-05-01T13:21:10;17.98;;;9.68;;
39502;SDS011;26970;49.900;10.774;2023-05-01T13:23:37;16.20;;;10.15;;
39502;SDS011;26970;49.900;10.774;2023-05-01T13:26:04;13.15;;;9.52;;
39502;SDS011;26970;49.900;10.774;2023-05-01T13:28:32;14.95;;;9.90;;
39502;SDS011;26970;49.900;10.774;2023-05-01T13:31:12;18.70;;;9.98;;
39502;SDS011;26970;49.900;10.774;2023-05-01T13:33:41;14.27;;;10.35;;
39502;SDS011;26970;49.900;10.774;2023-05-01T13:36:08;13.60;;;10.05;;
39502;SDS011;26970;49.900;10.774;2023-05-01T13:38:39;14.52;;;9.73;;
39502;SDS011;26970;49.900;10.774;2023-05-01T13:41:18;19.33;;;10.83;;
39502;SDS011;26970;49.900;10.774;2023-05-01T13:43:45;15.98;;;10.65;;
39502;SDS011;26970;49.900;10.774;2023-05-01T13:46:12;14.85;;;10.20;;
39502;SDS011;26970;49.900;10.774;2023-05-01T13:48:39;13.20;;;8.85;;
39502;SDS011;26970;49.900;10.774;2023-05-01T13:51:09;14.05;;;9.88;;
39502;SDS011;26970;49.900;10.774;2023-05-01T13:53:41;16.15;;;10.23;;
39502;SDS011;26970;49.900;10.774;2023-05-01T13:56:07;16.75;;;10.27;;
39502;SDS011;26970;49.900;10.774;2023-05-01T13:58:34;12.77;;;9.05;;
39502;SDS011;26970;49.900;10.774;2023-05-01T14:01:00;15.68;;;10.32;;
39502;SDS011;26970;49.900;10.774;2023-05-01T14:03:28;22.05;;;11.77;;
39502;SDS011;26970;49.900;10.774;2023-05-01T14:06:01;16.05;;;10.15;;
39502;SDS011;26970;49.900;10.774;2023-05-01T14:08:27;15.00;;;9.32;;
39502;SDS011;26970;49.900;10.774;2023-05-01T14:10:52;11.57;;;8.57;;
39502;SDS011;26970;49.900;10.774;2023-05-01T14:13:18;14.25;;;9.02;;
39502;SDS011;26970;49.900;10.774;2023-05-01T14:15:44;12.63;;;9.60;;
39502;SDS011;26970;49.900;10.774;2023-05-01T14:18:13;15.32;;;8.88;;
39502;SDS011;26970;49.900;10.774;2023-05-01T14:20:41;13.33;;;8.57;;
39502;SDS011;26970;49.900;10.774;2023-05-01T14:23:10;11.25;;;8.57;;
39502;SDS011;26970;49.900;10.774;2023-05-01T14:25:38;13.27;;;8.80;;
39502;SDS011;26970;49.900;10.774;2023-05-01T14:28:04;14.73;;;8.68;;
39502;SDS011;26970;49.900;10.774;2023-05-01T14:30:36;14.35;;;10.27;;
39502;SDS011;26970;49.900;10.774;2023-05-01T14:33:03;13.82;;;11.73;;
39502;SDS011;26970;49.900;10.774;2023-05-01T14:35:30;11.98;;;9.50;;
39502;SDS011;26970;49.900;10.774;2023-05-01T14:37:57;10.35;;;7.43;;
39502;SDS011;26970;49.900;10.774;2023-05-01T14:40:32;12.15;;;8.90;;
39502;SDS011;26970;49.900;10.774;2023-05-01T14:42:58;11.82;;;7.90;;
39502;SDS011;26970;49.900;10.774;2023-05-01T14:45:24;19.27;;;12.73;;
39502;SDS011;26970;49.900;10.774;2023-05-01T14:47:51;11.55;;;8.00;;
39502;SDS011;26970;49.900;10.774;2023-05-01T14:50:23;20.08;;;12.63;;
39502;SDS011;26970;49.900;10.774;2023-05-01T14:52:55;17.27;;;9.95;;
39502;SDS011;26970;49.900;10.774;2023-05-01T14:55:26;12.32;;;7.72;;
39502;SDS011;26970;49.900;10.774;2023-05-01T14:57:56;16.38;;;9.95;;
39502;SDS011;26970;49.900;10.774;2023-05-01T15:00:22;15.02;;;9.55;;
39502;SDS011;26970;49.900;10.774;2023-05-01T15:02:49;11.60;;;8.50;;
39502;SDS011;26970;49.900;10.774;2023-05-01T15:05:15;13.60;;;9.70;;
39502;SDS011;26970;49.900;10.774;2023-05-01T15:07:41;13.70;;;8.27;;
39502;SDS011;26970;49.900;10.774;2023-05-01T15:10:07;14.32;;;9.77;;
39502;SDS011;26970;49.900;10.774;2023-05-01T15:12:33;11.98;;;7.25;;
39502;SDS011;26970;49.900;10.774;2023-05-01T15:14:59;11.00;;;7.95;;
39502;SDS011;26970;49.900;10.774;2023-05-01T15:17:25;17.05;;;10.82;;